Time;durP1;ratioP1;P1;durP2;ratioP2;P2;SDS_P1;SDS_P2;PMS_P1;PMS_P2;Temp;Humidity;BMP_temperature;BMP_pressure;BME280_temperature;BME280_humidity;BME280_pressure;Samples;Min_cycle;Max_cycle;Signal;HPM_P1;HPM_P2
2022/02/08 05:47:49;;;;;;;45.10;28.27;;;;;;;1.06;100.00;99132.16;1675759;85;20988;-38
2022/02/08 05:50:37;;;;;;;47.05;28.42;;;;;;;1.05;100.00;99136.86;1667989;84;21019;-38
2022/02/08 05:53:06;;;;;;;44.77;28.32;;;;;;;1.04;100.00;99142.86;1694507;84;21003;-39
2022/02/08 05:55:22;;;;;;;48.02;28.10;;;;;;;1.04;100.00;99143.25;1680603;84;21548;-45
2022/02/08 06:01:45;;;;;;;40.25;25.23;;;;;;;1.08;100.00;99146.77;1675314;84;21400;-39
2022/02/08 06:04:20;;;;;;;42.55;28.02;;;;;;;1.07;100.00;99158.78;1659873;84;21066;-47
2022/02/08 06:06:46;;;;;;;43.23;25.77;;;;;;;1.07;100.00;99165.22;1677014;84;21081;-40
2022/02/08 06:09:13;;;;;;;41.80;25.65;;;;;;;1.08;100.00;99172.11;1673260;84;21115;-38
2022/02/08 06:11:42;;;;;;;39.88;25.23;;;;;;;1.08;100.00;99176.39;1673348;84;21061;-38
2022/02/08 06:14:10;;;;;;;38.33;22.98;;;;;;;1.06;100.00;99177.66;1672102;84;20959;-46
2022/02/08 06:16:37;;;;;;;40.90;23.10;;;;;;;1.05;100.00;99184.94;1668462;84;21096;-40
2022/02/08 06:19:05;;;;;;;38.20;22.87;;;;;;;1.05;100.00;99190.96;1669436;84;21024;-39
2022/02/08 06:21:33;;;;;;;34.85;23.18;;;;;;;1.06;100.00;99190.11;1645939;85;21070;-38
2022/02/08 06:23:59;;;;;;;33.25;21.45;;;;;;;1.07;100.00;99201.28;1667394;84;21070;-46
2022/02/08 06:26:28;;;;;;;34.08;22.32;;;;;;;1.05;100.00;99212.86;1664541;83;21063;-38
2022/02/08 06:29:08;;;;;;;33.95;20.08;;;;;;;1.05;100.00;99215.85;1662265;84;21375;-45
2022/02/08 06:31:29;;;;;;;29.50;20.05;;;;;;;1.04;100.00;99216.66;1662266;84;21478;-38
2022/02/08 06:45:49;;;;;;;25.15;17.52;;;;;;;1.05;100.00;99245.48;1656582;84;21093;-39
2022/02/08 06:49:11;;;;;;;25.90;18.02;;;;;;;1.04;100.00;99253.63;1657505;84;21578;-41
2022/02/08 06:52:33;;;;;;;;;;;;;;;1.02;100.00;99256.56;1663919;84;21522;-39
2022/02/08 06:59:54;;;;;;;33.18;19.23;;;;;;;0.98;100.00;99278.36;1661540;85;22087;-46
2022/02/08 07:03:18;;;;;;;30.50;20.55;;;;;;;0.96;100.00;99285.19;1657850;85;21617;-39
2022/02/08 07:05:45;;;;;;;29.20;20.10;;;;;;;0.93;100.00;99283.82;1659502;84;21081;-47
2022/02/08 07:08:20;;;;;;;31.48;21.82;;;;;;;0.93;100.00;99291.55;1658231;85;20967;-38
2022/02/08 07:10:48;;;;;;;28.32;20.05;;;;;;;0.92;100.00;99289.81;1605703;86;21633;-38
2022/02/08 07:13:15;;;;;;;28.42;19.50;;;;;;;0.91;100.00;99286.80;1627380;85;21528;-39
2022/02/08 07:16:14;;;;;;;29.82;20.72;;;;;;;0.90;100.00;99292.78;1639410;84;21617;-39
2022/02/08 07:27:21;;;;;;;34.95;22.73;;;;;;;0.90;100.00;99296.64;1658146;85;21138;-38
2022/02/08 07:30:44;;;;;;;33.05;21.75;;;;;;;0.92;100.00;99303.56;1649134;86;21066;-38
2022/02/08 07:33:11;;;;;;;31.95;21.37;;;;;;;0.93;100.00;99309.58;1657017;85;21511;-46
2022/02/08 07:38:28;;;;;;;34.18;23.50;;;;;;;0.99;100.00;99323.91;1659288;85;21026;-47
2022/02/08 07:43:19;;;;;;;37.33;24.32;;;;;;;1.03;100.00;99333.01;1662470;85;21328;-39
2022/02/08 07:46:02;;;;;;;35.13;22.37;;;;;;;1.06;100.00;99348.55;1592192;88;21721;-46
2022/02/08 07:48:29;;;;;;;35.65;24.40;;;;;;;1.09;100.00;99352.89;1587897;88;21088;-38
2022/02/08 07:50:57;;;;;;;38.02;24.65;;;;;;;1.11;100.00;99355.52;1587071;89;21025;-39
2022/02/08 07:53:27;;;;;;;40.40;24.63;;;;;;;1.11;100.00;99356.81;1590007;88;21013;-39
2022/02/08 07:55:55;;;;;;;36.13;24.87;;;;;;;1.11;100.00;99355.10;1589742;88;21143;-38
2022/02/08 07:58:29;;;;;;;38.33;24.72;;;;;;;1.11;100.00;99359.39;1589394;88;21583;-39
2022/02/08 08:00:55;;;;;;;39.03;25.65;;;;;;;1.10;100.00;99358.91;1587235;89;21092;-47
2022/02/08 08:03:22;;;;;;;42.30;25.82;;;;;;;1.08;100.00;99355.44;1590112;88;20974;-47
2022/02/08 08:05:51;;;;;;;43.68;28.42;;;;;;;1.04;100.00;99363.50;1587495;89;21078;-39
2022/02/08 08:08:17;;;;;;;41.02;26.68;;;;;;;1.02;100.00;99367.34;1588318;88;21078;-39
2022/02/08 08:10:47;;;;;;;43.68;28.25;;;;;;;1.02;100.00;99371.20;1586351;88;21137;-40
2022/02/08 08:13:18;;;;;;;47.03;28.45;;;;;;;1.01;100.00;99377.20;1564694;89;21160;-39
2022/02/08 08:33:44;;;;;;;45.30;28.23;;;;;;;1.00;100.00;99413.23;1635223;86;21001;-47
2022/02/08 08:48:30;;;;;;;41.33;24.37;;;;;;;0.95;100.00;99431.14;1638055;84;21926;-39
2022/02/08 08:53:39;;;;;;;43.40;26.80;;;;;;;1.03;100.00;99439.92;1665397;84;21315;-45
2022/02/08 08:56:29;;;;;;;44.20;25.77;;;;;;;1.10;100.00;99446.09;1666018;84;21365;-48
2022/02/08 08:59:15;;;;;;;45.20;27.90;;;;;;;1.13;100.00;99447.46;1642843;84;21063;-46
2022/02/08 09:01:59;;;;;;;36.95;24.87;;;;;;;1.17;100.00;99453.16;1659630;84;21062;-38
2022/02/08 09:29:06;;;;;;;30.57;18.52;;;;;;;1.44;100.00;99473.53;1664727;84;21584;-39
2022/02/08 09:31:37;;;;;;;27.50;19.05;;;;;;;1.47;100.00;99476.63;1660696;84;21729;-47
2022/02/08 09:34:09;;;;;;;26.45;18.30;;;;;;;1.50;100.00;99481.41;1658938;84;21887;-40
2022/02/08 09:36:37;;;;;;;31.27;20.15;;;;;;;1.51;100.00;99481.89;1663738;84;21979;-47
2022/02/08 09:39:03;;;;;;;29.87;19.12;;;;;;;1.54;100.00;99490.09;1661035;84;21036;-47
2022/02/08 09:41:32;;;;;;;29.82;20.35;;;;;;;1.56;100.00;99483.26;1663776;84;21700;-47
2022/02/08 09:43:58;;;;;;;30.97;19.32;;;;;;;1.55;100.00;99484.10;1666852;84;21040;-47
2022/02/08 09:46:25;;;;;;;29.23;19.60;;;;;;;1.55;100.00;99490.13;1654383;83;21427;-47
2022/02/08 09:48:59;;;;;;;30.77;20.70;;;;;;;1.53;100.00;99486.66;1651558;85;21043;-47
2022/02/08 09:51:26;;;;;;;35.52;21.55;;;;;;;1.52;100.00;99491.36;1639555;84;21065;-47
2022/02/08 09:53:57;;;;;;;29.90;19.27;;;;;;;1.56;100.00;99503.47;1651196;85;21670;-40
2022/02/08 09:56:26;;;;;;;32.65;19.82;;;;;;;1.58;100.00;99505.68;1652829;85;21080;-40
2022/02/08 09:58:55;;;;;;;33.40;19.65;;;;;;;1.61;100.00;99501.00;1654594;85;20998;-47
2022/02/08 10:01:25;;;;;;;31.15;19.27;;;;;;;1.62;100.00;99508.31;1654008;85;21022;-39
2022/02/08 10:03:57;;;;;;;26.33;16.42;;;;;;;1.63;100.00;99506.22;1658750;85;21073;-48
2022/02/08 10:06:25;;;;;;;28.30;18.62;;;;;;;1.61;100.00;99513.89;1649410;85;21069;-47
2022/02/08 10:09:17;;;;;;;28.47;16.97;;;;;;;1.62;100.00;99517.34;1652953;85;21022;-40
2022/02/08 10:12:30;;;;;;;26.35;15.98;;;;;;;1.59;100.00;99521.60;1648624;85;21057;-47
2022/02/08 10:23:58;;;;;;;17.77;11.45;;;;;;;1.65;100.00;99536.77;1655888;85;21014;-47
2022/02/08 10:38:58;;;;;;;12.47;7.55;;;;;;;1.71;100.00;99548.09;1648883;85;21400;-39
2022/02/08 10:41:25;;;;;;;10.18;6.75;;;;;;;1.71;100.00;99544.65;1646677;84;21060;-47
2022/02/08 10:44:03;;;;;;;8.20;5.40;;;;;;;1.73;100.00;99547.70;1657254;85;21073;-48
2022/02/08 10:46:35;;;;;;;5.90;5.05;;;;;;;1.74;100.00;99579.52;1651774;85;21537;-39
2022/02/08 10:49:15;;;;;;;7.58;5.12;;;;;;;1.70;100.00;99544.20;1656287;85;21026;-47
2022/02/08 10:51:54;;;;;;;8.80;4.87;;;;;;;1.68;100.00;99545.84;1651393;85;21062;-47
2022/02/08 10:54:39;;;;;;;6.87;5.37;;;;;;;1.65;100.00;99545.38;1649973;85;21052;-48
2022/02/08 10:57:13;;;;;;;6.47;5.17;;;;;;;1.64;100.00;99550.50;1635880;85;21507;-47
2022/02/08 10:59:46;;;;;;;6.55;5.05;;;;;;;1.63;100.00;99548.77;1622519;86;21058;-49
2022/02/08 11:02:13;;;;;;;6.85;5.25;;;;;;;1.61;100.00;99555.15;1651481;84;21092;-48
2022/02/08 11:10:26;;;;;;;5.85;4.05;;;;;;;1.59;100.00;99549.97;1628205;84;22722;-39
2022/02/08 11:12:59;;;;;;;4.87;4.33;;;;;;;1.58;100.00;99561.13;1652759;84;21732;-47
2022/02/08 11:18:59;;;;;;;5.78;4.12;;;;;;;1.55;100.00;99553.30;1603959;85;21427;-46
2022/02/08 11:24:57;;;;;;;3.92;3.40;;;;;;;1.57;100.00;99572.27;1649821;85;21623;-40
2022/02/08 11:27:56;;;;;;;5.87;4.17;;;;;;;1.57;100.00;99567.12;1648789;85;21630;-38
2022/02/08 11:47:10;;;;;;;10.48;6.83;;;;;;;1.53;99.80;99582.47;1620801;86;21580;-40
2022/02/08 11:49:40;;;;;;;10.75;6.70;;;;;;;1.52;99.37;99585.47;1621418;86;21527;-47
2022/02/08 12:00:44;;;;;;;9.08;6.53;;;;;;;1.63;97.96;99593.47;1660817;84;21429;-40
2022/02/08 12:08:30;;;;;;;11.05;5.83;;;;;;;1.77;97.31;99608.84;1664979;84;21043;-50
2022/02/08 12:12:03;;;;;;;9.63;5.42;;;;;;;1.80;97.00;99610.65;1664489;84;21079;-50
2022/02/08 12:28:00;;;;;;;9.68;5.47;;;;;;;1.92;96.70;99630.70;1665147;84;21011;-39
2022/02/08 12:30:53;;;;;;;5.70;4.03;;;;;;;2.11;95.36;99626.42;1624222;85;21058;-48
2022/02/08 12:57:48;;;;;;;5.42;4.20;;;;;;;2.47;91.34;99653.91;1661903;84;21004;-40
